createdAt,value
2019-05-03T00:01:43.781Z,4.00
2019-05-03T00:06:47.394Z,3.90
2019-05-03T00:11:52.712Z,3.70
2019-05-03T00:16:55.669Z,3.87
2019-05-03T00:21:59.183Z,3.80
2019-05-03T00:27:03.138Z,3.90
2019-05-03T00:32:06.799Z,4.30
2019-05-03T00:37:22.080Z,4.80
2019-05-03T00:42:25.510Z,4.87
2019-05-03T00:47:30.206Z,4.83
2019-05-03T00:52:33.678Z,5.40
2019-05-03T00:57:36.958Z,5.07
2019-05-03T01:02:42.213Z,5.33
2019-05-03T01:07:45.314Z,5.10
2019-05-03T01:12:48.588Z,5.13
2019-05-03T01:17:52.532Z,4.37
2019-05-03T01:22:55.828Z,4.67
2019-05-03T01:27:59.103Z,5.00
2019-05-03T01:33:02.904Z,5.90
2019-05-03T01:38:06.273Z,5.30
2019-05-03T01:43:11.625Z,4.60
2019-05-03T01:48:28.605Z,5.60
2019-05-03T01:53:33.529Z,5.53
2019-05-03T01:58:37.229Z,5.63
2019-05-03T02:03:42.435Z,5.23
2019-05-03T02:08:45.735Z,5.40
2019-05-03T02:13:49.264Z,5.83
2019-05-03T02:18:52.793Z,5.47
2019-05-03T02:23:56.068Z,5.10
2019-05-03T02:28:59.355Z,5.77
2019-05-03T02:34:03.695Z,6.93
2019-05-03T02:39:13.337Z,6.33
2019-05-03T02:44:17.359Z,6.30
2019-05-03T02:49:28.277Z,6.27
2019-05-03T02:54:31.775Z,5.20
2019-05-03T02:59:35.315Z,5.53
2019-05-03T03:04:38.834Z,5.47
2019-05-03T03:09:45.119Z,5.37
2019-05-03T03:14:48.017Z,5.53
2019-05-03T03:19:51.861Z,5.60
2019-05-03T03:24:58.573Z,4.83
2019-05-03T03:30:37.546Z,5.27
2019-05-03T03:35:40.460Z,4.90
2019-05-03T03:40:45.361Z,5.43
2019-05-03T03:45:50.200Z,5.60
2019-05-03T03:50:56.131Z,5.33
2019-05-03T03:56:00.106Z,6.93
2019-05-03T04:01:05.871Z,5.80
2019-05-03T04:06:08.391Z,7.53
2019-05-03T04:11:11.926Z,6.40
2019-05-03T04:16:29.419Z,6.13
2019-05-03T04:21:35.745Z,7.23
2019-05-03T04:26:37.996Z,7.10
2019-05-03T04:31:41.527Z,4.83
2019-05-03T04:36:46.151Z,6.40
2019-05-03T04:41:49.939Z,6.03
2019-05-03T04:46:56.020Z,5.27
2019-05-03T04:51:58.226Z,4.13
2019-05-03T04:57:01.754Z,4.23
2019-05-03T05:02:06.057Z,4.10
2019-05-03T05:07:09.850Z,4.23
2019-05-03T05:12:15.900Z,3.53
2019-05-03T05:17:22.897Z,3.63
2019-05-03T05:22:28.055Z,4.20
2019-05-03T05:27:54.597Z,3.37
2019-05-03T05:32:55.325Z,3.80
2019-05-03T05:37:58.721Z,4.40
2019-05-03T05:43:06.201Z,3.93
2019-05-03T05:48:12.654Z,3.70
2019-05-03T05:53:16.192Z,3.47
2019-05-03T05:58:25.447Z,4.37
2019-05-03T06:03:28.146Z,3.90
2019-05-03T06:08:36.467Z,4.40
2019-05-03T06:13:44.534Z,4.40
2019-05-03T06:18:51.838Z,4.60
2019-05-03T06:23:59.602Z,3.80
2019-05-03T06:29:04.638Z,3.43
2019-05-03T06:34:15.119Z,4.87
2019-05-03T06:39:18.746Z,4.20
2019-05-03T06:44:24.722Z,3.77
2019-05-03T06:49:27.538Z,2.93
2019-05-03T06:54:30.808Z,2.43
2019-05-03T06:59:35.998Z,2.97
2019-05-03T07:04:40.965Z,3.50
2019-05-03T07:09:46.176Z,2.87
2019-05-03T07:14:50.500Z,2.77
2019-05-03T07:19:54.703Z,2.00
2019-05-03T07:24:58.008Z,2.73
2019-05-03T07:30:01.532Z,2.70
2019-05-03T07:35:07.641Z,1.90
2019-05-03T07:40:14.829Z,2.00
2019-05-03T07:45:18.985Z,1.80
2019-05-03T07:50:22.262Z,1.50
2019-05-03T07:55:36.283Z,1.50
2019-05-03T08:00:41.119Z,1.30
2019-05-03T08:05:45.444Z,1.33
2019-05-03T08:10:49.385Z,1.73
2019-05-03T08:15:52.907Z,1.80
2019-05-03T08:20:56.184Z,2.60
2019-05-03T08:25:59.467Z,1.77
2019-05-03T08:31:04.887Z,2.07
2019-05-03T08:36:10.166Z,2.20
2019-05-03T08:41:26.384Z,1.67
2019-05-03T08:46:35.572Z,2.40
2019-05-03T08:51:38.981Z,2.30
2019-05-03T08:56:42.512Z,1.97
2019-05-03T09:01:51.785Z,1.20
2019-05-03T09:06:55.306Z,1.80
2019-05-03T09:11:58.838Z,1.40
2019-05-03T09:17:02.191Z,1.20
2019-05-03T09:22:06.176Z,1.07
2019-05-03T09:27:09.895Z,1.00
2019-05-03T09:32:14.749Z,1.20
2019-05-03T09:37:18.346Z,0.97
2019-05-03T09:42:21.634Z,1.30
2019-05-03T09:47:25.344Z,1.23
2019-05-03T09:52:28.721Z,0.90
2019-05-03T09:57:32.234Z,0.80
2019-05-03T10:02:35.528Z,0.93
2019-05-03T10:07:38.812Z,1.10
2019-05-03T10:12:42.105Z,1.00
2019-05-03T10:17:50.184Z,1.13
2019-05-03T10:22:54.535Z,1.03
2019-05-03T10:27:58.119Z,1.13
2019-05-03T10:33:05.824Z,1.07
2019-05-03T10:38:08.619Z,0.70
2019-05-03T10:43:12.226Z,0.50
2019-05-03T10:48:15.688Z,1.10
2019-05-03T10:53:20.825Z,0.83
2019-05-03T10:58:25.037Z,0.90
2019-05-03T11:03:31.471Z,1.00
2019-05-03T11:08:35.027Z,0.80
2019-05-03T11:13:38.321Z,0.67
2019-05-03T11:18:41.904Z,0.70
2019-05-03T11:23:45.199Z,0.90
2019-05-03T11:28:48.824Z,1.10
2019-05-03T11:33:52.791Z,1.60
2019-05-03T11:38:56.339Z,0.73
2019-05-03T11:44:01.539Z,0.60
2019-05-03T11:49:05.624Z,0.50
2019-05-03T11:54:09.513Z,0.60
2019-05-03T11:59:14.714Z,0.80
2019-05-03T12:04:17.813Z,0.73
2019-05-03T12:09:21.542Z,0.77
2019-05-03T12:14:25.093Z,0.70
2019-05-03T12:19:31.488Z,0.83
2019-05-03T12:24:35.868Z,0.80
2019-05-03T12:29:38.419Z,0.93
2019-05-03T12:34:41.732Z,0.87
2019-05-03T12:39:45.023Z,1.10
2019-05-03T12:44:48.571Z,1.13
2019-05-03T12:49:52.110Z,0.80
2019-05-03T12:54:55.661Z,0.90
2019-05-03T13:00:00.590Z,1.10
2019-05-03T13:05:04.925Z,0.93
2019-05-03T13:10:08.893Z,1.10
2019-05-03T13:15:14.348Z,1.00
2019-05-03T13:20:17.953Z,0.90
2019-05-03T13:25:21.270Z,0.73
2019-05-03T13:30:25.148Z,1.93
2019-05-03T13:35:28.778Z,1.77
2019-05-03T13:40:32.075Z,1.27
2019-05-03T13:45:35.638Z,1.30
2019-05-03T13:50:39.157Z,1.23
2019-05-03T13:55:44.492Z,1.30
2019-05-03T14:00:47.944Z,1.27
2019-05-03T14:05:51.776Z,1.30
2019-05-03T14:10:55.660Z,1.60
2019-05-03T14:15:59.301Z,1.30
2019-05-03T14:21:06.690Z,1.27
2019-05-03T14:26:15.096Z,1.30
2019-05-03T14:31:18.421Z,1.47
2019-05-03T14:36:22.380Z,1.63
2019-05-03T14:41:25.916Z,3.10
2019-05-03T14:46:33.084Z,1.53
2019-05-03T14:51:37.187Z,1.27
2019-05-03T14:56:53.462Z,1.67
2019-05-03T15:02:12.245Z,1.40
2019-05-03T15:07:15.590Z,1.30
2019-05-03T15:12:25.379Z,1.43
2019-05-03T15:17:31.943Z,1.40
2019-05-03T15:22:36.845Z,1.73
2019-05-03T15:27:41.494Z,1.23
2019-05-03T15:32:56.653Z,1.37
2019-05-03T15:37:50.108Z,1.67
2019-05-03T15:42:55.112Z,1.43
2019-05-03T15:48:18.383Z,1.90
2019-05-03T15:53:21.915Z,1.93
2019-05-03T15:58:25.199Z,1.60
2019-05-03T16:03:30.154Z,1.27
2019-05-03T16:08:34.212Z,2.23
2019-05-03T16:13:41.138Z,2.17
2019-05-03T16:18:45.508Z,2.37
2019-05-03T16:23:49.039Z,2.50
2019-05-03T16:29:00.500Z,2.33
2019-05-03T16:34:05.589Z,2.20
2019-05-03T16:39:09.509Z,1.93
2019-05-03T16:44:16.518Z,2.47
2019-05-03T16:49:19.954Z,1.90
2019-05-03T16:54:26.290Z,1.90
2019-05-03T16:59:31.153Z,2.13
2019-05-03T17:04:45.230Z,2.10
2019-05-03T17:09:50.138Z,2.20
2019-05-03T17:14:54.383Z,2.80
2019-05-03T17:19:58.934Z,2.03
2019-05-03T17:25:06.390Z,2.47
2019-05-03T17:30:11.242Z,2.27
2019-05-03T17:35:16.936Z,1.67
2019-05-03T17:40:37.997Z,2.30
2019-05-03T17:45:42.920Z,2.40
2019-05-03T17:50:46.481Z,1.90
2019-05-03T17:55:55.177Z,2.27
2019-05-03T18:01:18.346Z,3.83
2019-05-03T18:06:25.322Z,1.87
2019-05-03T18:11:34.687Z,2.57
2019-05-03T18:16:38.076Z,2.10
2019-05-03T18:21:41.369Z,2.50
2019-05-03T18:26:44.727Z,2.20
2019-05-03T18:31:49.188Z,2.00
2019-05-03T18:36:52.719Z,2.40
2019-05-03T18:41:56.000Z,1.90
2019-05-03T18:47:01.037Z,1.93
2019-05-03T18:52:04.504Z,2.07
2019-05-03T18:57:08.033Z,2.20
2019-05-03T19:02:11.426Z,1.93
2019-05-03T19:07:16.364Z,2.20
2019-05-03T19:12:32.939Z,3.63
2019-05-03T19:17:38.105Z,4.67
2019-05-03T19:22:41.643Z,2.57
2019-05-03T19:27:45.203Z,2.37
2019-05-03T19:32:48.501Z,2.10
2019-05-03T19:37:51.795Z,2.13
2019-05-03T19:42:57.876Z,2.27
2019-05-03T19:48:01.170Z,2.17
2019-05-03T19:53:24.207Z,2.27
2019-05-03T19:58:27.747Z,1.97
2019-05-03T20:03:38.663Z,2.70
2019-05-03T20:08:44.423Z,3.00
2019-05-03T20:13:48.170Z,3.17
2019-05-03T20:18:51.470Z,2.97
2019-05-03T20:23:55.567Z,4.40
2019-05-03T20:28:59.222Z,2.80
2019-05-03T20:34:02.749Z,2.97
2019-05-03T20:39:07.378Z,3.40
2019-05-03T20:44:27.510Z,2.83
2019-05-03T20:49:30.811Z,2.83
2019-05-03T20:54:35.001Z,3.50
2019-05-03T20:59:45.278Z,3.87
2019-05-03T21:04:43.654Z,4.00
2019-05-03T21:09:47.151Z,3.20
2019-05-03T21:14:50.666Z,3.60
2019-05-03T21:19:55.812Z,3.00
2019-05-03T21:25:06.666Z,3.73
2019-05-03T21:30:10.352Z,4.40
2019-05-03T21:35:14.798Z,3.77
2019-05-03T21:40:18.133Z,3.70
2019-05-03T21:45:24.715Z,3.80
2019-05-03T21:50:28.416Z,4.47
2019-05-03T21:55:32.009Z,4.07
2019-05-03T22:00:46.117Z,4.60
2019-05-03T22:05:55.125Z,4.27
2019-05-03T22:10:55.412Z,4.30
2019-05-03T22:16:16.935Z,4.67
2019-05-03T22:21:21.853Z,5.40
2019-05-03T22:26:45.232Z,4.60
2019-05-03T22:31:48.529Z,4.67
2019-05-03T22:36:51.826Z,4.77
2019-05-03T22:41:55.194Z,5.40
2019-05-03T22:46:58.723Z,6.27
2019-05-03T22:52:02.230Z,4.97
2019-05-03T22:57:05.752Z,4.90
2019-05-03T23:02:09.041Z,4.87
2019-05-03T23:07:12.345Z,5.00
2019-05-03T23:12:15.885Z,3.50
2019-05-03T23:17:19.175Z,4.23
2019-05-03T23:22:29.516Z,3.93
2019-05-03T23:27:32.786Z,4.27
2019-05-03T23:32:36.312Z,4.00
2019-05-03T23:37:39.847Z,5.47
2019-05-03T23:42:43.535Z,4.03
2019-05-03T23:47:48.698Z,4.47
2019-05-03T23:52:51.958Z,5.10
2019-05-03T23:57:55.484Z,5.17
